sensor_id;sensor_type;location;lat;lon;timestamp;P1;durP1;ratioP1;P2;durP2;ratioP2
25443;SDS011;13368;52.346;4.678;2023-03-30T00:00:00;7.4;;;4.6;;
25443;SDS011;13368;52.346;4.678;2023-03-30T00:05:00;10.2;;;4.8;;
25443;SDS011;13368;52.346;4.678;2023-03-30T00:10:00;8.6;;;5.8;;
25443;SDS011;13368;52.346;4.678;2023-03-30T00:15:00;13.0;;;6.5;;
25443;SDS011;13368;52.346;4.678;2023-03-30T00:20:00;11.8;;;5.7;;
25443;SDS011;13368;52.346;4.678;2023-03-30T00:25:00;12.0;;;5.4;;
25443;SDS011;13368;52.346;4.678;2023-03-30T00:30:00;10.8;;;5.7;;
25443;SDS011;13368;52.346;4.678;2023-03-30T00:35:00;9.0;;;5.5;;
25443;SDS011;13368;52.346;4.678;2023-03-30T00:40:00;11.4;;;6.0;;
25443;SDS011;13368;52.346;4.678;2023-03-30T00:45:05;17.6;;;6.2;;
25443;SDS011;13368;52.346;4.678;2023-03-30T00:50:00;11.2;;;6.5;;
25443;SDS011;13368;52.346;4.678;2023-03-30T00:55:00;10.9;;;5.8;;
25443;SDS011;13368;52.346;4.678;2023-03-30T01:00:00;9.8;;;4.7;;
25443;SDS011;13368;52.346;4.678;2023-03-30T01:05:00;10.1;;;5.3;;
25443;SDS011;13368;52.346;4.678;2023-03-30T01:10:00;10.1;;;4.7;;
25443;SDS011;13368;52.346;4.678;2023-03-30T01:15:00;10.1;;;4.3;;
25443;SDS011;13368;52.346;4.678;2023-03-30T01:20:10;10.0;;;4.0;;
25443;SDS011;13368;52.346;4.678;2023-03-30T01:25:05;11.0;;;4.6;;
25443;SDS011;13368;52.346;4.678;2023-03-30T01:30:05;10.8;;;4.5;;
25443;SDS011;13368;52.346;4.678;2023-03-30T01:35:06;8.4;;;4.3;;
25443;SDS011;13368;52.346;4.678;2023-03-30T01:40:00;9.6;;;4.3;;
25443;SDS011;13368;52.346;4.678;2023-03-30T01:45:02;9.8;;;4.2;;
25443;SDS011;13368;52.346;4.678;2023-03-30T01:50:00;13.1;;;4.2;;
25443;SDS011;13368;52.346;4.678;2023-03-30T01:55:01;13.7;;;4.3;;
25443;SDS011;13368;52.346;4.678;2023-03-30T02:00:02;8.9;;;3.7;;
25443;SDS011;13368;52.346;4.678;2023-03-30T02:05:00;13.4;;;4.3;;
25443;SDS011;13368;52.346;4.678;2023-03-30T02:10:01;14.6;;;3.9;;
25443;SDS011;13368;52.346;4.678;2023-03-30T02:15:00;11.2;;;3.9;;
25443;SDS011;13368;52.346;4.678;2023-03-30T02:20:00;9.1;;;4.2;;
25443;SDS011;13368;52.346;4.678;2023-03-30T02:25:00;13.8;;;4.5;;
25443;SDS011;13368;52.346;4.678;2023-03-30T02:30:00;15.3;;;5.0;;
25443;SDS011;13368;52.346;4.678;2023-03-30T02:35:05;15.1;;;4.9;;
25443;SDS011;13368;52.346;4.678;2023-03-30T02:40:04;15.9;;;4.0;;
25443;SDS011;13368;52.346;4.678;2023-03-30T02:45:03;16.8;;;4.7;;
25443;SDS011;13368;52.346;4.678;2023-03-30T02:50:02;18.2;;;4.2;;
25443;SDS011;13368;52.346;4.678;2023-03-30T02:55:02;17.0;;;4.7;;
25443;SDS011;13368;52.346;4.678;2023-03-30T03:00:01;14.1;;;4.5;;
25443;SDS011;13368;52.346;4.678;2023-03-30T03:05:00;13.4;;;4.3;;
25443;SDS011;13368;52.346;4.678;2023-03-30T03:10:00;11.8;;;4.7;;
25443;SDS011;13368;52.346;4.678;2023-03-30T03:15:00;9.3;;;3.5;;
25443;SDS011;13368;52.346;4.678;2023-03-30T03:20:00;12.8;;;4.1;;
25443;SDS011;13368;52.346;4.678;2023-03-30T03:25:00;12.4;;;3.5;;
25443;SDS011;13368;52.346;4.678;2023-03-30T03:30:00;15.1;;;4.0;;
25443;SDS011;13368;52.346;4.678;2023-03-30T03:35:00;8.9;;;3.3;;
25443;SDS011;13368;52.346;4.678;2023-03-30T03:40:00;7.7;;;3.2;;
25443;SDS011;13368;52.346;4.678;2023-03-30T03:45:00;11.7;;;3.8;;
25443;SDS011;13368;52.346;4.678;2023-03-30T03:50:00;8.7;;;3.8;;
25443;SDS011;13368;52.346;4.678;2023-03-30T03:55:00;16.0;;;4.1;;
25443;SDS011;13368;52.346;4.678;2023-03-30T04:00:00;16.6;;;3.8;;
25443;SDS011;13368;52.346;4.678;2023-03-30T04:05:00;17.9;;;4.7;;
25443;SDS011;13368;52.346;4.678;2023-03-30T04:10:00;9.9;;;3.8;;
25443;SDS011;13368;52.346;4.678;2023-03-30T04:15:00;16.4;;;4.2;;
25443;SDS011;13368;52.346;4.678;2023-03-30T04:20:00;14.3;;;4.1;;
25443;SDS011;13368;52.346;4.678;2023-03-30T04:25:00;15.3;;;4.2;;
25443;SDS011;13368;52.346;4.678;2023-03-30T04:30:00;18.5;;;5.3;;
25443;SDS011;13368;52.346;4.678;2023-03-30T04:35:00;14.3;;;4.8;;
25443;SDS011;13368;52.346;4.678;2023-03-30T04:40:00;20.4;;;4.9;;
25443;SDS011;13368;52.346;4.678;2023-03-30T04:45:00;22.6;;;5.5;;
25443;SDS011;13368;52.346;4.678;2023-03-30T04:50:00;18.8;;;5.2;;
25443;SDS011;13368;52.346;4.678;2023-03-30T04:55:00;19.0;;;5.2;;
25443;SDS011;13368;52.346;4.678;2023-03-30T05:00:00;13.7;;;5.0;;
25443;SDS011;13368;52.346;4.678;2023-03-30T05:05:00;18.7;;;4.7;;
25443;SDS011;13368;52.346;4.678;2023-03-30T05:10:00;22.1;;;5.3;;
25443;SDS011;13368;52.346;4.678;2023-03-30T05:15:00;21.0;;;5.5;;
25443;SDS011;13368;52.346;4.678;2023-03-30T05:20:00;22.7;;;5.2;;
25443;SDS011;13368;52.346;4.678;2023-03-30T05:25:00;18.0;;;5.3;;
25443;SDS011;13368;52.346;4.678;2023-03-30T05:30:00;24.9;;;5.7;;
25443;SDS011;13368;52.346;4.678;2023-03-30T05:35:00;17.6;;;4.9;;
25443;SDS011;13368;52.346;4.678;2023-03-30T05:40:00;19.2;;;5.1;;
25443;SDS011;13368;52.346;4.678;2023-03-30T05:45:00;19.6;;;5.6;;
25443;SDS011;13368;52.346;4.678;2023-03-30T05:50:00;21.9;;;6.3;;
25443;SDS011;13368;52.346;4.678;2023-03-30T05:55:00;21.4;;;5.6;;
25443;SDS011;13368;52.346;4.678;2023-03-30T06:00:00;30.8;;;6.8;;
25443;SDS011;13368;52.346;4.678;2023-03-30T06:05:00;35.7;;;6.8;;
25443;SDS011;13368;52.346;4.678;2023-03-30T06:10:00;30.4;;;6.1;;
25443;SDS011;13368;52.346;4.678;2023-03-30T06:15:00;26.5;;;7.6;;
25443;SDS011;13368;52.346;4.678;2023-03-30T06:20:00;29.9;;;6.0;;
25443;SDS011;13368;52.346;4.678;2023-03-30T06:25:00;27.7;;;6.8;;
25443;SDS011;13368;52.346;4.678;2023-03-30T06:30:00;28.5;;;7.4;;
25443;SDS011;13368;52.346;4.678;2023-03-30T06:35:00;34.5;;;7.0;;
25443;SDS011;13368;52.346;4.678;2023-03-30T06:40:00;30.6;;;7.4;;
25443;SDS011;13368;52.346;4.678;2023-03-30T06:45:00;34.8;;;7.4;;
25443;SDS011;13368;52.346;4.678;2023-03-30T06:50:00;27.1;;;6.5;;
25443;SDS011;13368;52.346;4.678;2023-03-30T06:55:00;34.9;;;6.3;;
25443;SDS011;13368;52.346;4.678;2023-03-30T07:00:00;34.9;;;7.3;;
25443;SDS011;13368;52.346;4.678;2023-03-30T07:05:00;25.8;;;6.3;;
25443;SDS011;13368;52.346;4.678;2023-03-30T07:10:00;28.7;;;6.3;;
25443;SDS011;13368;52.346;4.678;2023-03-30T07:15:00;30.3;;;6.6;;
25443;SDS011;13368;52.346;4.678;2023-03-30T07:20:00;32.3;;;6.9;;
25443;SDS011;13368;52.346;4.678;2023-03-30T07:25:00;31.2;;;6.7;;
25443;SDS011;13368;52.346;4.678;2023-03-30T07:30:00;24.2;;;6.0;;
25443;SDS011;13368;52.346;4.678;2023-03-30T07:35:00;28.0;;;6.0;;
25443;SDS011;13368;52.346;4.678;2023-03-30T07:40:00;27.1;;;6.3;;
25443;SDS011;13368;52.346;4.678;2023-03-30T07:45:00;30.6;;;6.9;;
25443;SDS011;13368;52.346;4.678;2023-03-30T07:50:00;34.2;;;7.6;;
25443;SDS011;13368;52.346;4.678;2023-03-30T07:55:00;36.0;;;7.9;;
25443;SDS011;13368;52.346;4.678;2023-03-30T08:00:00;32.4;;;6.9;;
25443;SDS011;13368;52.346;4.678;2023-03-30T08:05:00;34.1;;;7.6;;
25443;SDS011;13368;52.346;4.678;2023-03-30T08:10:00;30.3;;;7.0;;
25443;SDS011;13368;52.346;4.678;2023-03-30T08:15:00;32.9;;;7.1;;
25443;SDS011;13368;52.346;4.678;2023-03-30T08:20:00;28.8;;;6.7;;
25443;SDS011;13368;52.346;4.678;2023-03-30T08:25:00;34.0;;;6.9;;
25443;SDS011;13368;52.346;4.678;2023-03-30T08:30:00;26.4;;;6.9;;
25443;SDS011;13368;52.346;4.678;2023-03-30T08:35:00;30.4;;;7.4;;
25443;SDS011;13368;52.346;4.678;2023-03-30T08:40:00;25.5;;;6.3;;
25443;SDS011;13368;52.346;4.678;2023-03-30T08:45:00;25.8;;;6.6;;
25443;SDS011;13368;52.346;4.678;2023-03-30T08:50:02;26.5;;;6.4;;
25443;SDS011;13368;52.346;4.678;2023-03-30T08:55:00;25.6;;;6.5;;
25443;SDS011;13368;52.346;4.678;2023-03-30T09:00:03;27.4;;;7.0;;
25443;SDS011;13368;52.346;4.678;2023-03-30T09:05:00;35.2;;;6.8;;
25443;SDS011;13368;52.346;4.678;2023-03-30T09:10:00;31.4;;;7.2;;
25443;SDS011;13368;52.346;4.678;2023-03-30T09:15:02;36.6;;;7.1;;
25443;SDS011;13368;52.346;4.678;2023-03-30T09:20:03;29.0;;;6.7;;
25443;SDS011;13368;52.346;4.678;2023-03-30T09:25:00;35.7;;;7.9;;
25443;SDS011;13368;52.346;4.678;2023-03-30T09:30:02;31.5;;;6.5;;
25443;SDS011;13368;52.346;4.678;2023-03-30T09:35:01;30.7;;;7.2;;
25443;SDS011;13368;52.346;4.678;2023-03-30T09:40:00;26.9;;;7.0;;
25443;SDS011;13368;52.346;4.678;2023-03-30T09:45:00;38.5;;;7.6;;
25443;SDS011;13368;52.346;4.678;2023-03-30T09:50:00;41.4;;;8.6;;
25443;SDS011;13368;52.346;4.678;2023-03-30T09:55:01;35.5;;;8.3;;
25443;SDS011;13368;52.346;4.678;2023-03-30T10:00:00;34.5;;;8.3;;
25443;SDS011;13368;52.346;4.678;2023-03-30T10:05:01;36.1;;;7.4;;
25443;SDS011;13368;52.346;4.678;2023-03-30T10:10:01;37.7;;;8.5;;
25443;SDS011;13368;52.346;4.678;2023-03-30T10:15:00;35.9;;;6.8;;
25443;SDS011;13368;52.346;4.678;2023-03-30T10:25:00;31.3;;;7.6;;
25443;SDS011;13368;52.346;4.678;2023-03-30T10:30:06;29.0;;;7.3;;
25443;SDS011;13368;52.346;4.678;2023-03-30T10:35:00;38.6;;;8.1;;
25443;SDS011;13368;52.346;4.678;2023-03-30T10:40:00;35.0;;;7.3;;
25443;SDS011;13368;52.346;4.678;2023-03-30T10:45:00;31.8;;;6.9;;
25443;SDS011;13368;52.346;4.678;2023-03-30T10:50:02;29.6;;;7.1;;
25443;SDS011;13368;52.346;4.678;2023-03-30T10:55:01;27.5;;;6.9;;
25443;SDS011;13368;52.346;4.678;2023-03-30T11:00:03;35.9;;;7.4;;
25443;SDS011;13368;52.346;4.678;2023-03-30T11:05:01;33.5;;;8.2;;
25443;SDS011;13368;52.346;4.678;2023-03-30T11:10:04;32.5;;;7.8;;
25443;SDS011;13368;52.346;4.678;2023-03-30T11:15:00;31.0;;;6.7;;
25443;SDS011;13368;52.346;4.678;2023-03-30T11:20:02;28.5;;;7.4;;
25443;SDS011;13368;52.346;4.678;2023-03-30T11:25:00;30.9;;;7.3;;
25443;SDS011;13368;52.346;4.678;2023-03-30T11:30:02;30.1;;;6.9;;
25443;SDS011;13368;52.346;4.678;2023-03-30T11:35:02;34.1;;;7.6;;
25443;SDS011;13368;52.346;4.678;2023-03-30T11:40:01;33.7;;;7.0;;
25443;SDS011;13368;52.346;4.678;2023-03-30T11:45:00;39.9;;;7.9;;
25443;SDS011;13368;52.346;4.678;2023-03-30T11:50:03;31.0;;;7.3;;
25443;SDS011;13368;52.346;4.678;2023-03-30T12:00:02;34.4;;;7.1;;
25443;SDS011;13368;52.346;4.678;2023-03-30T12:05:02;34.7;;;7.5;;
25443;SDS011;13368;52.346;4.678;2023-03-30T12:10:01;32.9;;;7.3;;
25443;SDS011;13368;52.346;4.678;2023-03-30T12:15:03;26.4;;;7.6;;
25443;SDS011;13368;52.346;4.678;2023-03-30T12:20:02;28.9;;;7.2;;
25443;SDS011;13368;52.346;4.678;2023-03-30T12:25:02;26.4;;;6.8;;
25443;SDS011;13368;52.346;4.678;2023-03-30T12:30:09;38.6;;;8.0;;
25443;SDS011;13368;52.346;4.678;2023-03-30T12:35:00;33.4;;;7.3;;
25443;SDS011;13368;52.346;4.678;2023-03-30T12:40:01;34.8;;;7.5;;
25443;SDS011;13368;52.346;4.678;2023-03-30T12:45:05;25.5;;;7.6;;
25443;SDS011;13368;52.346;4.678;2023-03-30T12:50:08;32.6;;;8.1;;
25443;SDS011;13368;52.346;4.678;2023-03-30T12:55:06;26.1;;;7.2;;
25443;SDS011;13368;52.346;4.678;2023-03-30T13:00:05;35.2;;;7.7;;
25443;SDS011;13368;52.346;4.678;2023-03-30T13:05:00;33.6;;;7.4;;
25443;SDS011;13368;52.346;4.678;2023-03-30T13:10:00;28.5;;;7.5;;
25443;SDS011;13368;52.346;4.678;2023-03-30T13:15:01;33.9;;;7.6;;
25443;SDS011;13368;52.346;4.678;2023-03-30T13:20:11;29.2;;;7.8;;
25443;SDS011;13368;52.346;4.678;2023-03-30T13:25:01;34.6;;;7.8;;
25443;SDS011;13368;52.346;4.678;2023-03-30T13:30:00;34.1;;;7.9;;
25443;SDS011;13368;52.346;4.678;2023-03-30T13:35:03;33.5;;;7.5;;
25443;SDS011;13368;52.346;4.678;2023-03-30T13:40:01;31.3;;;8.0;;
25443;SDS011;13368;52.346;4.678;2023-03-30T13:45:01;33.4;;;8.0;;
25443;SDS011;13368;52.346;4.678;2023-03-30T13:50:00;35.3;;;7.4;;
25443;SDS011;13368;52.346;4.678;2023-03-30T13:55:00;31.8;;;6.9;;
25443;SDS011;13368;52.346;4.678;2023-03-30T14:00:02;35.6;;;7.8;;
25443;SDS011;13368;52.346;4.678;2023-03-30T14:10:01;29.3;;;8.0;;
25443;SDS011;13368;52.346;4.678;2023-03-30T14:15:00;28.9;;;6.5;;
25443;SDS011;13368;52.346;4.678;2023-03-30T14:20:03;26.5;;;6.4;;
25443;SDS011;13368;52.346;4.678;2023-03-30T14:25:01;31.3;;;7.1;;
25443;SDS011;13368;52.346;4.678;2023-03-30T14:30:00;28.4;;;6.9;;
25443;SDS011;13368;52.346;4.678;2023-03-30T14:35:03;27.1;;;6.7;;
25443;SDS011;13368;52.346;4.678;2023-03-30T14:40:00;31.1;;;7.0;;
25443;SDS011;13368;52.346;4.678;2023-03-30T14:45:00;34.4;;;7.1;;
25443;SDS011;13368;52.346;4.678;2023-03-30T14:50:01;29.2;;;6.6;;
25443;SDS011;13368;52.346;4.678;2023-03-30T14:55:00;35.4;;;8.3;;
25443;SDS011;13368;52.346;4.678;2023-03-30T15:00:01;33.0;;;6.1;;
25443;SDS011;13368;52.346;4.678;2023-03-30T15:05:00;32.4;;;7.4;;
25443;SDS011;13368;52.346;4.678;2023-03-30T15:10:00;33.2;;;7.1;;
25443;SDS011;13368;52.346;4.678;2023-03-30T15:15:01;36.7;;;7.3;;
25443;SDS011;13368;52.346;4.678;2023-03-30T15:20:01;36.2;;;7.8;;
25443;SDS011;13368;52.346;4.678;2023-03-30T15:25:00;27.4;;;6.7;;
25443;SDS011;13368;52.346;4.678;2023-03-30T15:30:00;28.6;;;6.7;;
25443;SDS011;13368;52.346;4.678;2023-03-30T15:35:04;27.1;;;7.0;;
25443;SDS011;13368;52.346;4.678;2023-03-30T15:40:00;25.2;;;6.5;;
25443;SDS011;13368;52.346;4.678;2023-03-30T15:45:01;24.3;;;6.6;;
25443;SDS011;13368;52.346;4.678;2023-03-30T15:50:00;34.6;;;7.2;;
25443;SDS011;13368;52.346;4.678;2023-03-30T15:55:01;32.9;;;6.5;;
25443;SDS011;13368;52.346;4.678;2023-03-30T16:00:00;30.5;;;6.4;;
25443;SDS011;13368;52.346;4.678;2023-03-30T16:05:01;25.6;;;6.7;;
25443;SDS011;13368;52.346;4.678;2023-03-30T16:10:00;27.6;;;6.1;;
25443;SDS011;13368;52.346;4.678;2023-03-30T16:15:00;23.2;;;6.5;;
25443;SDS011;13368;52.346;4.678;2023-03-30T16:20:00;29.6;;;6.8;;
25443;SDS011;13368;52.346;4.678;2023-03-30T16:25:00;26.1;;;6.0;;
25443;SDS011;13368;52.346;4.678;2023-03-30T16:30:00;25.3;;;6.8;;
25443;SDS011;13368;52.346;4.678;2023-03-30T16:35:01;26.1;;;6.0;;
25443;SDS011;13368;52.346;4.678;2023-03-30T16:40:00;27.3;;;5.9;;
25443;SDS011;13368;52.346;4.678;2023-03-30T16:45:00;21.0;;;5.5;;
25443;SDS011;13368;52.346;4.678;2023-03-30T16:50:00;27.2;;;6.5;;
25443;SDS011;13368;52.346;4.678;2023-03-30T16:55:00;23.8;;;5.5;;
25443;SDS011;13368;52.346;4.678;2023-03-30T17:00:00;25.9;;;6.1;;
25443;SDS011;13368;52.346;4.678;2023-03-30T17:05:00;28.9;;;6.3;;
25443;SDS011;13368;52.346;4.678;2023-03-30T17:10:00;31.1;;;6.7;;
25443;SDS011;13368;52.346;4.678;2023-03-30T17:15:00;21.9;;;6.3;;
25443;SDS011;13368;52.346;4.678;2023-03-30T17:20:00;31.0;;;7.4;;
25443;SDS011;13368;52.346;4.678;2023-03-30T17:25:00;24.9;;;6.9;;
25443;SDS011;13368;52.346;4.678;2023-03-30T17:30:00;23.5;;;7.0;;
25443;SDS011;13368;52.346;4.678;2023-03-30T17:35:00;26.1;;;6.5;;
25443;SDS011;13368;52.346;4.678;2023-03-30T17:40:00;27.9;;;7.4;;
25443;SDS011;13368;52.346;4.678;2023-03-30T17:45:00;27.2;;;6.1;;
25443;SDS011;13368;52.346;4.678;2023-03-30T17:50:00;28.1;;;6.5;;
25443;SDS011;13368;52.346;4.678;2023-03-30T17:55:00;26.1;;;5.4;;
25443;SDS011;13368;52.346;4.678;2023-03-30T18:00:00;19.2;;;5.6;;
25443;SDS011;13368;52.346;4.678;2023-03-30T18:05:00;21.3;;;5.5;;
25443;SDS011;13368;52.346;4.678;2023-03-30T18:10:00;25.7;;;6.3;;
25443;SDS011;13368;52.346;4.678;2023-03-30T18:15:00;25.9;;;6.5;;
25443;SDS011;13368;52.346;4.678;2023-03-30T18:20:00;24.2;;;6.2;;
25443;SDS011;13368;52.346;4.678;2023-03-30T18:25:00;28.3;;;6.9;;
25443;SDS011;13368;52.346;4.678;2023-03-30T18:30:00;26.2;;;6.2;;
25443;SDS011;13368;52.346;4.678;2023-03-30T18:35:00;25.5;;;6.6;;
25443;SDS011;13368;52.346;4.678;2023-03-30T18:40:00;32.0;;;7.0;;
25443;SDS011;13368;52.346;4.678;2023-03-30T18:45:00;29.9;;;6.8;;
25443;SDS011;13368;52.346;4.678;2023-03-30T18:50:00;26.9;;;6.4;;
25443;SDS011;13368;52.346;4.678;2023-03-30T18:55:00;33.5;;;7.2;;
25443;SDS011;13368;52.346;4.678;2023-03-30T19:00:00;32.4;;;7.6;;
25443;SDS011;13368;52.346;4.678;2023-03-30T19:05:00;30.6;;;7.0;;
25443;SDS011;13368;52.346;4.678;2023-03-30T19:10:00;32.3;;;6.3;;
25443;SDS011;13368;52.346;4.678;2023-03-30T19:15:00;29.1;;;6.8;;
25443;SDS011;13368;52.346;4.678;2023-03-30T19:20:00;32.0;;;6.6;;
25443;SDS011;13368;52.346;4.678;2023-03-30T19:25:00;25.3;;;6.7;;
25443;SDS011;13368;52.346;4.678;2023-03-30T19:30:00;28.6;;;7.3;;
25443;SDS011;13368;52.346;4.678;2023-03-30T19:35:00;35.8;;;7.4;;
25443;SDS011;13368;52.346;4.678;2023-03-30T19:40:00;25.5;;;7.0;;
25443;SDS011;13368;52.346;4.678;2023-03-30T19:45:00;27.7;;;6.8;;
25443;SDS011;13368;52.346;4.678;2023-03-30T19:50:00;29.8;;;6.4;;
25443;SDS011;13368;52.346;4.678;2023-03-30T19:55:00;21.3;;;5.7;;
25443;SDS011;13368;52.346;4.678;2023-03-30T20:00:00;23.6;;;5.5;;
25443;SDS011;13368;52.346;4.678;2023-03-30T20:05:00;27.6;;;6.4;;
25443;SDS011;13368;52.346;4.678;2023-03-30T20:10:00;28.8;;;7.8;;
25443;SDS011;13368;52.346;4.678;2023-03-30T20:15:00;33.2;;;6.2;;
25443;SDS011;13368;52.346;4.678;2023-03-30T20:20:00;30.6;;;7.5;;
25443;SDS011;13368;52.346;4.678;2023-03-30T20:25:00;28.7;;;6.5;;
25443;SDS011;13368;52.346;4.678;2023-03-30T20:30:00;35.7;;;7.3;;
25443;SDS011;13368;52.346;4.678;2023-03-30T20:35:00;30.8;;;6.9;;
25443;SDS011;13368;52.346;4.678;2023-03-30T20:40:00;27.9;;;6.6;;
25443;SDS011;13368;52.346;4.678;2023-03-30T20:45:00;27.4;;;6.8;;
25443;SDS011;13368;52.346;4.678;2023-03-30T20:50:00;30.8;;;6.6;;
25443;SDS011;13368;52.346;4.678;2023-03-30T20:55:00;25.6;;;6.3;;
25443;SDS011;13368;52.346;4.678;2023-03-30T21:00:00;31.0;;;6.9;;
25443;SDS011;13368;52.346;4.678;2023-03-30T21:05:00;32.5;;;6.9;;
25443;SDS011;13368;52.346;4.678;2023-03-30T21:10:00;32.0;;;7.1;;
25443;SDS011;13368;52.346;4.678;2023-03-30T21:15:00;31.4;;;7.1;;
25443;SDS011;13368;52.346;4.678;2023-03-30T21:20:00;34.9;;;7.2;;
25443;SDS011;13368;52.346;4.678;2023-03-30T21:25:00;33.0;;;7.4;;
25443;SDS011;13368;52.346;4.678;2023-03-30T21:30:00;29.8;;;6.3;;
25443;SDS011;13368;52.346;4.678;2023-03-30T21:35:00;31.4;;;7.0;;
25443;SDS011;13368;52.346;4.678;2023-03-30T21:40:00;28.2;;;7.1;;
25443;SDS011;13368;52.346;4.678;2023-03-30T21:45:00;23.4;;;6.1;;
25443;SDS011;13368;52.346;4.678;2023-03-30T21:50:00;33.5;;;7.8;;
25443;SDS011;13368;52.346;4.678;2023-03-30T21:55:00;27.2;;;6.7;;
25443;SDS011;13368;52.346;4.678;2023-03-30T22:00:00;26.9;;;6.4;;
25443;SDS011;13368;52.346;4.678;2023-03-30T22:05:00;26.1;;;6.0;;
25443;SDS011;13368;52.346;4.678;2023-03-30T22:10:00;32.6;;;6.5;;
25443;SDS011;13368;52.346;4.678;2023-03-30T22:15:00;24.6;;;6.7;;
25443;SDS011;13368;52.346;4.678;2023-03-30T22:20:00;22.4;;;5.4;;
25443;SDS011;13368;52.346;4.678;2023-03-30T22:25:00;23.0;;;6.0;;
25443;SDS011;13368;52.346;4.678;2023-03-30T22:30:00;22.0;;;6.3;;
25443;SDS011;13368;52.346;4.678;2023-03-30T22:35:00;28.3;;;6.8;;
25443;SDS011;13368;52.346;4.678;2023-03-30T22:40:00;29.6;;;6.2;;
25443;SDS011;13368;52.346;4.678;2023-03-30T22:45:00;28.3;;;6.6;;
25443;SDS011;13368;52.346;4.678;2023-03-30T22:50:00;33.5;;;5.9;;
25443;SDS011;13368;52.346;4.678;2023-03-30T22:55:00;23.8;;;5.6;;
25443;SDS011;13368;52.346;4.678;2023-03-30T23:00:00;28.8;;;7.4;;
25443;SDS011;13368;52.346;4.678;2023-03-30T23:05:00;28.3;;;6.5;;
25443;SDS011;13368;52.346;4.678;2023-03-30T23:10:00;30.0;;;6.6;;
25443;SDS011;13368;52.346;4.678;2023-03-30T23:15:00;23.7;;;6.1;;
25443;SDS011;13368;52.346;4.678;2023-03-30T23:20:00;24.6;;;6.2;;
25443;SDS011;13368;52.346;4.678;2023-03-30T23:25:00;22.3;;;5.8;;
25443;SDS011;13368;52.346;4.678;2023-03-30T23:30:00;32.4;;;5.8;;
25443;SDS011;13368;52.346;4.678;2023-03-30T23:35:00;21.6;;;5.6;;
25443;SDS011;13368;52.346;4.678;2023-03-30T23:40:00;27.0;;;6.1;;
25443;SDS011;13368;52.346;4.678;2023-03-30T23:45:00;22.8;;;5.8;;
25443;SDS011;13368;52.346;4.678;2023-03-30T23:50:00;24.4;;;5.5;;
25443;SDS011;13368;52.346;4.678;2023-03-30T23:55:00;27.0;;;5.9;;
